Time;durP1;ratioP1;P1;durP2;ratioP2;P2;SDS_P1;SDS_P2;PMS_P1;PMS_P2;Temp;Humidity;BMP_temperature;BMP_pressure;BME280_temperature;BME280_humidity;BME280_pressure;Samples;Min_cycle;Max_cycle;Signal;HPM_P1;HPM_P2
2022/06/15 00:01:34;;;;;;;;;;;21.40;46.80;;;;;;450433;265;1098;-72
2022/06/15 00:03:37;;;;;;;;;;;21.50;46.80;;;;;;450446;265;1248;-72
2022/06/15 00:05:38;;;;;;;;;;;21.60;46.70;;;;;;450419;265;1246;-72
2022/06/15 00:07:39;;;;;;;;;;;21.60;46.60;;;;;;450372;265;1268;-72
2022/06/15 00:09:41;;;;;;;;;;;21.70;46.60;;;;;;450392;265;1164;-72
2022/06/15 00:11:42;;;;;;;;;;;21.70;46.50;;;;;;450402;261;2206;-72
2022/06/15 00:13:43;;;;;;;;;;;21.30;47.00;;;;;;450397;265;1181;-72
2022/06/15 00:15:45;;;;;;;;;;;20.80;48.10;;;;;;450453;265;1240;-72
2022/06/15 00:17:46;;;;;;;;;;;20.60;48.90;;;;;;450410;265;1110;-73
2022/06/15 00:19:47;;;;;;;;;;;20.50;49.30;;;;;;450364;265;1260;-72
2022/06/15 00:21:49;;;;;;;;;;;20.30;49.40;;;;;;450445;261;1217;-72
2022/06/15 00:23:51;;;;;;;;;;;20.30;49.60;;;;;;450421;265;1183;-73
2022/06/15 00:25:52;;;;;;;;;;;20.30;49.60;;;;;;450478;265;1204;-72
2022/06/15 00:27:53;;;;;;;;;;;20.30;49.70;;;;;;450386;265;1537;-72
2022/06/15 00:29:54;;;;;;;;;;;20.30;49.80;;;;;;450452;265;1283;-72
2022/06/15 00:31:56;;;;;;;;;;;20.30;49.70;;;;;;450447;265;2139;-72
2022/06/15 00:33:57;;;;;;;;;;;20.20;49.80;;;;;;450472;265;1363;-72
2022/06/15 00:35:58;;;;;;;;;;;20.20;50.00;;;;;;450435;265;1273;-72
2022/06/15 00:38:00;;;;;;;;;;;20.10;50.00;;;;;;450500;265;1144;-72
2022/06/15 00:40:01;;;;;;;;;;;20.10;50.10;;;;;;450522;265;1253;-72
2022/06/15 00:42:03;;;;;;;;;;;20.60;49.40;;;;;;450427;265;1106;-72
2022/06/15 00:44:04;;;;;;;;;;;21.00;48.30;;;;;;450427;265;1085;-72
2022/06/15 00:46:05;;;;;;;;;;;21.30;47.60;;;;;;450377;260;1349;-72
2022/06/15 00:48:07;;;;;;;;;;;21.40;47.20;;;;;;450361;265;1205;-72
2022/06/15 00:50:08;;;;;;;;;;;21.50;46.80;;;;;;450342;265;990;-72
2022/06/15 00:52:09;;;;;;;;;;;21.50;46.90;;;;;;450307;265;2218;-72
2022/06/15 00:54:11;;;;;;;;;;;21.60;46.80;;;;;;450391;265;1117;-72
2022/06/15 00:56:12;;;;;;;;;;;21.60;46.80;;;;;;450321;260;1160;-72
2022/06/15 00:58:15;;;;;;;;;;;21.60;46.70;;;;;;450462;265;1059;-72
2022/06/15 01:00:15;;;;;;;;;;;21.60;46.70;;;;;;450363;264;1301;-72
2022/06/15 01:02:16;;;;;;;;;;;21.60;46.70;;;;;;450380;265;1142;-72
2022/06/15 01:04:17;;;;;;;;;;;21.50;46.60;;;;;;450428;265;1142;-72
2022/06/15 01:06:22;;;;;;;;;;;21.60;46.60;;;;;;450418;260;1213;-72
2022/06/15 01:08:21;;;;;;;;;;;21.60;46.60;;;;;;450277;264;1372;-72
2022/06/15 01:10:21;;;;;;;;;;;21.70;46.50;;;;;;450317;265;1352;-72
2022/06/15 01:12:23;;;;;;;;;;;21.60;46.70;;;;;;450373;260;2202;-73
2022/06/15 01:14:24;;;;;;;;;;;21.70;46.60;;;;;;450411;265;1095;-73
2022/06/15 01:16:25;;;;;;;;;;;21.60;46.60;;;;;;450384;265;1174;-73
2022/06/15 01:18:27;;;;;;;;;;;21.60;46.60;;;;;;450383;265;1173;-72
2022/06/15 01:20:28;;;;;;;;;;;21.60;46.80;;;;;;450437;265;1264;-72
2022/06/15 01:22:29;;;;;;;;;;;21.60;46.50;;;;;;450426;265;1177;-72
2022/06/15 01:24:31;;;;;;;;;;;21.70;46.60;;;;;;450377;265;1167;-72
2022/06/15 01:26:32;;;;;;;;;;;21.60;46.60;;;;;;450324;265;1287;-72
2022/06/15 01:28:33;;;;;;;;;;;21.60;46.50;;;;;;450389;265;1113;-72
2022/06/15 01:30:35;;;;;;;;;;;21.70;46.40;;;;;;450383;265;1187;-72
2022/06/15 01:32:36;;;;;;;;;;;21.70;46.40;;;;;;450336;265;2143;-73
2022/06/15 01:34:38;;;;;;;;;;;21.70;46.40;;;;;;450402;265;1134;-72
2022/06/15 01:36:39;;;;;;;;;;;21.60;46.40;;;;;;450422;265;1211;-72
2022/06/15 01:38:40;;;;;;;;;;;21.50;46.50;;;;;;450391;265;1098;-72
2022/06/15 01:40:42;;;;;;;;;;;21.20;47.30;;;;;;450348;265;1311;-72
2022/06/15 01:42:43;;;;;;;;;;;20.90;48.00;;;;;;450352;265;1145;-72
2022/06/15 01:44:44;;;;;;;;;;;20.90;48.20;;;;;;450452;265;1144;-72
2022/06/15 01:46:46;;;;;;;;;;;20.80;48.40;;;;;;450479;265;1354;-72
2022/06/15 01:48:48;;;;;;;;;;;20.80;48.30;;;;;;450405;265;1173;-72
2022/06/15 01:50:48;;;;;;;;;;;21.00;48.00;;;;;;450459;264;1386;-73
2022/06/15 01:52:50;;;;;;;;;;;20.90;48.10;;;;;;450407;265;2151;-72
2022/06/15 01:54:51;;;;;;;;;;;20.90;48.10;;;;;;450397;265;1138;-72
2022/06/15 01:56:52;;;;;;;;;;;21.10;47.60;;;;;;450399;265;1263;-72
2022/06/15 01:58:54;;;;;;;;;;;21.20;47.50;;;;;;450416;265;1036;-72
2022/06/15 02:00:57;;;;;;;;;;;21.20;47.40;;;;;;450450;265;1373;-72
2022/06/15 02:02:57;;;;;;;;;;;21.40;47.10;;;;;;450396;265;1450;-72
2022/06/15 02:04:59;;;;;;;;;;;21.40;46.90;;;;;;450476;265;1044;-72
2022/06/15 02:07:00;;;;;;;;;;;21.50;46.60;;;;;;450318;265;1320;-72
2022/06/15 02:09:01;;;;;;;;;;;21.50;46.70;;;;;;450388;265;1155;-72
2022/06/15 02:11:03;;;;;;;;;;;21.50;46.60;;;;;;450556;265;1228;-72
2022/06/15 02:13:04;;;;;;;;;;;21.70;46.30;;;;;;450486;265;2136;-72
2022/06/15 02:15:05;;;;;;;;;;;21.60;46.30;;;;;;450449;265;964;-72
2022/06/15 02:17:07;;;;;;;;;;;21.60;46.30;;;;;;450431;265;1253;-72
2022/06/15 02:19:08;;;;;;;;;;;21.60;46.20;;;;;;450425;265;1005;-72
2022/06/15 02:21:09;;;;;;;;;;;21.60;46.30;;;;;;450387;265;1248;-73
2022/06/15 02:23:11;;;;;;;;;;;21.50;46.40;;;;;;450505;265;1223;-72
2022/06/15 02:25:12;;;;;;;;;;;21.60;46.30;;;;;;450369;265;1068;-72
2022/06/15 02:27:13;;;;;;;;;;;21.50;46.40;;;;;;450454;265;978;-72
2022/06/15 02:29:15;;;;;;;;;;;21.50;46.50;;;;;;450412;265;985;-72
2022/06/15 02:31:16;;;;;;;;;;;21.50;46.50;;;;;;450380;265;1243;-72
2022/06/15 02:33:17;;;;;;;;;;;21.50;46.50;;;;;;450458;265;2160;-72
2022/06/15 02:35:19;;;;;;;;;;;21.50;46.60;;;;;;450392;265;1036;-72
2022/06/15 02:37:20;;;;;;;;;;;21.50;46.60;;;;;;450403;265;1263;-73
2022/06/15 02:39:21;;;;;;;;;;;21.60;46.40;;;;;;450351;265;1215;-72
2022/06/15 02:41:23;;;;;;;;;;;21.50;46.50;;;;;;450292;265;1200;-72
2022/06/15 02:43:24;;;;;;;;;;;21.50;46.50;;;;;;450296;259;1237;-73
2022/06/15 02:45:26;;;;;;;;;;;21.50;46.50;;;;;;450406;265;1166;-72
2022/06/15 02:47:27;;;;;;;;;;;21.60;46.30;;;;;;450414;265;1195;-72
2022/06/15 02:49:28;;;;;;;;;;;21.50;46.30;;;;;;450453;265;1462;-72
2022/06/15 02:51:29;;;;;;;;;;;21.50;46.40;;;;;;450363;265;1200;-72
2022/06/15 02:53:31;;;;;;;;;;;21.50;46.50;;;;;;450389;265;2213;-72
2022/06/15 02:55:32;;;;;;;;;;;21.40;46.30;;;;;;450423;265;1144;-72
2022/06/15 02:57:33;;;;;;;;;;;21.20;46.70;;;;;;450419;265;1114;-72
2022/06/15 02:59:35;;;;;;;;;;;21.30;46.80;;;;;;450440;265;1226;-72
2022/06/15 03:01:36;;;;;;;;;;;21.40;46.70;;;;;;450385;264;1551;-72
2022/06/15 03:03:37;;;;;;;;;;;21.30;46.60;;;;;;450512;265;1059;-72
2022/06/15 03:05:41;;;;;;;;;;;21.30;46.80;;;;;;450432;265;992;-72
2022/06/15 03:07:40;;;;;;;;;;;21.30;46.70;;;;;;450327;264;1374;-72
2022/06/15 03:09:41;;;;;;;;;;;21.30;46.80;;;;;;450411;265;977;-72
2022/06/15 03:11:45;;;;;;;;;;;21.40;46.70;;;;;;450315;265;2223;-73
2022/06/15 03:13:44;;;;;;;;;;;21.30;46.60;;;;;;450410;264;1408;-72
2022/06/15 03:15:45;;;;;;;;;;;21.50;46.50;;;;;;450441;265;1009;-72
2022/06/15 03:17:47;;;;;;;;;;;21.60;46.30;;;;;;450409;265;992;-72
2022/06/15 03:19:48;;;;;;;;;;;21.60;46.20;;;;;;450441;265;1057;-72
2022/06/15 03:21:49;;;;;;;;;;;21.50;46.10;;;;;;450415;265;1064;-72
2022/06/15 03:23:51;;;;;;;;;;;21.40;46.40;;;;;;450435;265;1211;-72
2022/06/15 03:25:52;;;;;;;;;;;21.60;46.20;;;;;;450412;265;1196;-72
2022/06/15 03:27:53;;;;;;;;;;;21.50;46.20;;;;;;450357;265;1102;-72
2022/06/15 03:29:55;;;;;;;;;;;21.40;46.30;;;;;;450414;265;1045;-72
2022/06/15 03:31:56;;;;;;;;;;;21.50;46.40;;;;;;450403;265;2202;-72
2022/06/15 03:33:57;;;;;;;;;;;21.50;46.10;;;;;;450418;265;990;-72
2022/06/15 03:35:59;;;;;;;;;;;21.50;46.10;;;;;;450381;265;1132;-73
2022/06/15 03:38:00;;;;;;;;;;;21.50;46.00;;;;;;450322;265;1093;-72
2022/06/15 03:40:01;;;;;;;;;;;21.50;46.10;;;;;;450369;259;1178;-72
2022/06/15 03:42:03;;;;;;;;;;;21.40;46.20;;;;;;450324;265;1243;-72
2022/06/15 03:44:04;;;;;;;;;;;21.40;46.40;;;;;;450360;265;1361;-72
2022/06/15 03:46:05;;;;;;;;;;;21.40;46.40;;;;;;450366;265;1194;-72
2022/06/15 03:48:07;;;;;;;;;;;21.40;46.50;;;;;;450398;261;1603;-72
2022/06/15 03:50:08;;;;;;;;;;;21.30;46.50;;;;;;450368;265;1312;-72
2022/06/15 03:52:10;;;;;;;;;;;21.40;46.50;;;;;;450330;265;2147;-72
2022/06/15 03:54:11;;;;;;;;;;;21.30;46.50;;;;;;450436;265;1203;-72
2022/06/15 03:56:12;;;;;;;;;;;21.20;46.60;;;;;;450350;265;1125;-72
2022/06/15 03:58:13;;;;;;;;;;;21.30;46.50;;;;;;450424;265;1181;-72
2022/06/15 04:00:15;;;;;;;;;;;21.30;46.50;;;;;;450424;265;1257;-72
2022/06/15 04:02:16;;;;;;;;;;;21.20;46.60;;;;;;450374;265;1228;-72
2022/06/15 04:04:18;;;;;;;;;;;21.10;46.80;;;;;;450434;265;1265;-73
2022/06/15 04:06:19;;;;;;;;;;;21.10;46.90;;;;;;450422;265;1072;-72
2022/06/15 04:08:35;;;;;;;;;;;21.10;47.00;;;;;;450418;265;1207;-73
2022/06/15 04:10:37;;;;;;;;;;;21.20;47.00;;;;;;450375;265;1211;-72
2022/06/15 04:12:38;;;;;;;;;;;21.20;46.80;;;;;;450457;265;2148;-72
2022/06/15 04:14:39;;;;;;;;;;;21.20;46.90;;;;;;450488;265;1204;-72
2022/06/15 04:16:41;;;;;;;;;;;21.10;46.80;;;;;;450276;265;1099;-72
2022/06/15 04:18:42;;;;;;;;;;;21.20;46.90;;;;;;450338;265;1019;-72
2022/06/15 04:20:43;;;;;;;;;;;21.20;46.80;;;;;;450393;265;992;-72
2022/06/15 04:22:45;;;;;;;;;;;21.30;46.60;;;;;;450340;265;1145;-72
2022/06/15 04:24:46;;;;;;;;;;;21.30;46.50;;;;;;450316;265;1284;-71
2022/06/15 04:26:48;;;;;;;;;;;21.40;46.50;;;;;;450338;265;1086;-71
2022/06/15 04:28:49;;;;;;;;;;;21.40;46.40;;;;;;450279;265;1135;-72
2022/06/15 04:30:50;;;;;;;;;;;21.40;46.50;;;;;;450312;265;1185;-72
2022/06/15 04:32:52;;;;;;;;;;;21.40;46.50;;;;;;450209;265;2218;-72
2022/06/15 04:34:53;;;;;;;;;;;21.40;46.30;;;;;;450262;265;1294;-72
2022/06/15 04:36:54;;;;;;;;;;;21.40;46.40;;;;;;450217;265;1265;-72
2022/06/15 04:38:56;;;;;;;;;;;21.40;46.50;;;;;;450206;265;1151;-72
2022/06/15 04:40:57;;;;;;;;;;;21.40;46.40;;;;;;450238;265;1243;-72
2022/06/15 04:42:58;;;;;;;;;;;21.40;46.50;;;;;;450191;265;1227;-72
2022/06/15 04:45:00;;;;;;;;;;;21.40;46.50;;;;;;450158;265;1258;-72
2022/06/15 04:47:02;;;;;;;;;;;21.50;46.30;;;;;;450172;265;1331;-72
2022/06/15 04:49:03;;;;;;;;;;;21.40;46.50;;;;;;450231;264;1339;-72
2022/06/15 04:51:04;;;;;;;;;;;21.30;46.60;;;;;;450127;264;1448;-72
2022/06/15 04:53:05;;;;;;;;;;;21.30;46.60;;;;;;450169;265;2123;-72
2022/06/15 04:55:07;;;;;;;;;;;21.30;46.60;;;;;;450196;265;1214;-72
2022/06/15 04:57:08;;;;;;;;;;;21.20;46.70;;;;;;450076;265;1187;-72
2022/06/15 04:59:09;;;;;;;;;;;21.20;46.70;;;;;;450014;265;1090;-72
2022/06/15 05:01:11;;;;;;;;;;;21.30;46.60;;;;;;450085;265;1220;-72
2022/06/15 05:03:12;;;;;;;;;;;21.30;46.70;;;;;;450046;265;1179;-71
2022/06/15 05:05:13;;;;;;;;;;;21.30;46.70;;;;;;450182;265;1161;-72
2022/06/15 05:07:15;;;;;;;;;;;21.20;46.80;;;;;;450161;265;1141;-71
2022/06/15 05:09:16;;;;;;;;;;;21.10;46.90;;;;;;450152;265;1261;-72
2022/06/15 05:11:17;;;;;;;;;;;21.00;47.10;;;;;;449990;265;1140;-72
2022/06/15 05:13:19;;;;;;;;;;;21.00;47.40;;;;;;450051;265;2151;-72
2022/06/15 05:15:20;;;;;;;;;;;21.10;47.30;;;;;;450077;265;1179;-72
2022/06/15 05:17:21;;;;;;;;;;;21.10;47.20;;;;;;450033;265;1100;-72
2022/06/15 05:19:23;;;;;;;;;;;21.20;47.20;;;;;;450027;265;1198;-72
2022/06/15 05:21:24;;;;;;;;;;;21.20;47.10;;;;;;449982;265;1271;-72
2022/06/15 05:23:25;;;;;;;;;;;21.30;46.90;;;;;;449985;265;1270;-72
2022/06/15 05:25:27;;;;;;;;;;;21.30;47.00;;;;;;450097;265;1443;-72
2022/06/15 05:27:28;;;;;;;;;;;21.30;46.80;;;;;;450052;265;1102;-72
2022/06/15 05:29:29;;;;;;;;;;;21.30;46.80;;;;;;450104;265;1162;-72
2022/06/15 05:31:31;;;;;;;;;;;21.40;46.90;;;;;;450045;265;1119;-72
2022/06/15 05:33:33;;;;;;;;;;;21.40;46.70;;;;;;450000;265;2214;-72
2022/06/15 05:35:34;;;;;;;;;;;21.20;47.00;;;;;;450020;265;1134;-72
2022/06/15 05:37:36;;;;;;;;;;;21.40;46.90;;;;;;450121;265;1111;-72
2022/06/15 05:39:37;;;;;;;;;;;21.40;46.90;;;;;;450034;265;1259;-73
2022/06/15 05:41:39;;;;;;;;;;;21.20;47.00;;;;;;449920;265;1103;-72
2022/06/15 05:43:41;;;;;;;;;;;21.30;47.10;;;;;;450030;265;1217;-72
2022/06/15 05:45:42;;;;;;;;;;;21.30;47.10;;;;;;450010;265;1144;-72
2022/06/15 05:47:44;;;;;;;;;;;21.40;47.10;;;;;;449936;265;1284;-72
2022/06/15 05:49:45;;;;;;;;;;;21.20;47.10;;;;;;449927;265;1143;-71
2022/06/15 05:51:46;;;;;;;;;;;21.20;47.20;;;;;;449991;265;1209;-72
2022/06/15 05:53:48;;;;;;;;;;;21.40;47.00;;;;;;449893;265;2155;-72
2022/06/15 05:55:49;;;;;;;;;;;21.40;46.80;;;;;;449838;265;1232;-72
2022/06/15 05:57:51;;;;;;;;;;;21.40;46.80;;;;;;449827;265;1249;-72
2022/06/15 05:59:52;;;;;;;;;;;21.40;46.90;;;;;;449705;265;1331;-72
2022/06/15 06:01:53;;;;;;;;;;;21.30;47.10;;;;;;449539;265;1066;-72
2022/06/15 06:03:55;;;;;;;;;;;21.20;47.10;;;;;;449670;265;1246;-72
2022/06/15 06:05:56;;;;;;;;;;;21.20;47.10;;;;;;449764;265;1285;-72
2022/06/15 06:07:57;;;;;;;;;;;21.20;47.30;;;;;;449959;265;1150;-72
2022/06/15 06:09:59;;;;;;;;;;;21.20;47.20;;;;;;449710;265;1125;-72
2022/06/15 06:12:00;;;;;;;;;;;21.20;47.30;;;;;;449617;265;1249;-72
2022/06/15 06:14:02;;;;;;;;;;;21.20;47.20;;;;;;449592;265;2234;-72
2022/06/15 06:16:03;;;;;;;;;;;21.00;47.50;;;;;;449683;265;1253;-72
2022/06/15 06:18:04;;;;;;;;;;;20.90;47.80;;;;;;449682;265;1297;-72
2022/06/15 06:20:05;;;;;;;;;;;21.00;47.90;;;;;;450416;265;1082;-72
2022/06/15 06:22:07;;;;;;;;;;;21.10;47.70;;;;;;449646;265;1164;-72
2022/06/15 06:24:08;;;;;;;;;;;21.10;47.90;;;;;;449556;265;1279;-72
2022/06/15 06:26:10;;;;;;;;;;;21.10;47.60;;;;;;449534;265;1484;-72
2022/06/15 06:28:11;;;;;;;;;;;21.20;47.70;;;;;;449514;265;1184;-72
2022/06/15 06:30:12;;;;;;;;;;;21.10;47.70;;;;;;449495;265;1072;-72
2022/06/15 06:32:13;;;;;;;;;;;21.30;47.60;;;;;;449674;265;1161;-72
2022/06/15 06:34:15;;;;;;;;;;;21.30;47.50;;;;;;449744;265;2207;-72
2022/06/15 06:36:16;;;;;;;;;;;21.30;47.40;;;;;;449336;265;1126;-72
2022/06/15 06:38:18;;;;;;;;;;;21.30;47.50;;;;;;449344;261;1134;-72
2022/06/15 06:40:19;;;;;;;;;;;21.20;47.80;;;;;;449462;265;1303;-72
2022/06/15 06:42:20;;;;;;;;;;;21.20;47.80;;;;;;449290;265;1186;-72
2022/06/15 06:44:22;;;;;;;;;;;21.20;47.80;;;;;;449256;265;1217;-72
2022/06/15 06:46:23;;;;;;;;;;;21.20;47.90;;;;;;449435;265;1322;-72
2022/06/15 06:48:24;;;;;;;;;;;21.20;48.00;;;;;;449446;265;1187;-72
2022/06/15 06:50:26;;;;;;;;;;;21.20;48.10;;;;;;449614;265;1116;-72
2022/06/15 06:52:27;;;;;;;;;;;21.20;47.90;;;;;;449958;265;1214;-72
2022/06/15 06:54:29;;;;;;;;;;;21.20;48.00;;;;;;449641;265;2215;-72
2022/06/15 06:56:30;;;;;;;;;;;21.20;47.80;;;;;;449642;264;1467;-72
2022/06/15 06:58:31;;;;;;;;;;;21.30;47.70;;;;;;450089;265;1229;-72
2022/06/15 07:00:32;;;;;;;;;;;21.20;48.00;;;;;;450116;265;1107;-72
2022/06/15 07:02:34;;;;;;;;;;;21.10;48.10;;;;;;450168;265;1287;-72
2022/06/15 07:04:35;;;;;;;;;;;21.10;48.20;;;;;;450047;265;1176;-72
2022/06/15 07:06:36;;;;;;;;;;;21.20;48.10;;;;;;449303;265;1308;-73
2022/06/15 07:08:38;;;;;;;;;;;21.20;48.00;;;;;;449559;265;1042;-72
2022/06/15 07:10:39;;;;;;;;;;;21.30;48.10;;;;;;449669;265;1294;-72
2022/06/15 07:12:42;;;;;;;;;;;21.20;48.30;;;;;;449643;265;1111;-72
2022/06/15 07:14:41;;;;;;;;;;;21.20;48.40;;;;;;449752;264;2202;-72
2022/06/15 07:16:43;;;;;;;;;;;21.00;48.60;;;;;;449854;265;908;-72
2022/06/15 07:18:45;;;;;;;;;;;20.80;49.00;;;;;;449760;259;1523;-72
2022/06/15 07:20:45;;;;;;;;;;;21.10;48.60;;;;;;449764;264;1322;-72
2022/06/15 07:22:47;;;;;;;;;;;21.00;48.70;;;;;;449750;265;1058;-72
2022/06/15 07:24:48;;;;;;;;;;;21.00;48.80;;;;;;449165;265;1315;-72
2022/06/15 07:26:49;;;;;;;;;;;21.00;48.80;;;;;;448991;265;1125;-72
2022/06/15 07:28:51;;;;;;;;;;;21.10;48.60;;;;;;449013;265;1230;-72
2022/06/15 07:30:52;;;;;;;;;;;21.10;48.70;;;;;;449157;265;1128;-72
2022/06/15 07:32:53;;;;;;;;;;;21.20;48.70;;;;;;449040;265;1128;-72
2022/06/15 07:34:55;;;;;;;;;;;21.10;48.70;;;;;;449108;265;2202;-72
2022/06/15 07:36:56;;;;;;;;;;;21.10;48.80;;;;;;449204;265;1133;-72
2022/06/15 07:38:57;;;;;;;;;;;21.10;48.80;;;;;;449163;265;1216;-72
2022/06/15 07:40:59;;;;;;;;;;;21.10;48.70;;;;;;449337;265;1134;-72
2022/06/15 07:43:00;;;;;;;;;;;21.20;48.60;;;;;;449609;265;1104;-72
2022/06/15 07:45:01;;;;;;;;;;;21.20;48.60;;;;;;449662;265;1188;-72
2022/06/15 07:51:54;;;;;;;;;;;21.20;48.70;;;;;;449685;261;1276;-72
2022/06/15 07:53:56;;;;;;;;;;;21.20;48.80;;;;;;450047;265;2209;-72
2022/06/15 07:55:57;;;;;;;;;;;21.20;48.80;;;;;;450178;265;1221;-72
2022/06/15 07:57:59;;;;;;;;;;;21.20;48.80;;;;;;449792;265;1164;-72
2022/06/15 08:00:00;;;;;;;;;;;21.30;48.70;;;;;;450030;264;1114;-72
2022/06/15 08:02:01;;;;;;;;;;;21.20;48.70;;;;;;449520;265;867;-72
2022/06/15 08:04:02;;;;;;;;;;;21.20;49.00;;;;;;449933;265;1008;-72
2022/06/15 08:06:04;;;;;;;;;;;21.10;49.10;;;;;;449208;265;1125;-72
2022/06/15 08:08:05;;;;;;;;;;;21.10;49.20;;;;;;449334;265;1088;-73
2022/06/15 08:10:06;;;;;;;;;;;21.10;49.30;;;;;;449212;261;1216;-72
2022/06/15 08:12:16;;;;;;;;;;;21.10;49.30;;;;;;448999;265;1180;-72
2022/06/15 08:14:16;;;;;;;;;;;21.20;49.20;;;;;;448914;265;2218;-72
2022/06/15 08:16:18;;;;;;;;;;;21.20;49.20;;;;;;449082;265;1150;-72
2022/06/15 08:18:19;;;;;;;;;;;21.20;49.20;;;;;;448803;265;1126;-72
2022/06/15 08:20:20;;;;;;;;;;;21.10;49.20;;;;;;449272;265;1158;-72
2022/06/15 08:22:22;;;;;;;;;;;21.30;49.20;;;;;;449154;265;1123;-72
2022/06/15 08:24:24;;;;;;;;;;;21.40;48.90;;;;;;449200;265;1191;-72
2022/06/15 08:26:24;;;;;;;;;;;21.40;48.90;;;;;;449132;264;1281;-72
2022/06/15 08:28:26;;;;;;;;;;;21.40;48.80;;;;;;448810;265;1213;-72
2022/06/15 08:30:27;;;;;;;;;;;21.30;49.00;;;;;;449097;265;1294;-72
2022/06/15 08:32:28;;;;;;;;;;;21.40;49.00;;;;;;449035;265;1123;-72
2022/06/15 08:34:32;;;;;;;;;;;21.40;49.20;;;;;;449078;265;2195;-72
2022/06/15 08:36:31;;;;;;;;;;;21.40;49.00;;;;;;448773;265;1258;-72
2022/06/15 08:38:32;;;;;;;;;;;21.50;48.80;;;;;;448954;265;1219;-72
2022/06/15 08:40:34;;;;;;;;;;;21.70;48.50;;;;;;449102;265;1126;-72
2022/06/15 08:42:35;;;;;;;;;;;21.70;48.50;;;;;;449122;265;1167;-72
2022/06/15 08:44:36;;;;;;;;;;;21.60;48.60;;;;;;448980;265;1385;-72
2022/06/15 08:46:39;;;;;;;;;;;21.80;48.40;;;;;;448942;265;1197;-72
2022/06/15 08:48:39;;;;;;;;;;;21.70;48.60;;;;;;448909;264;1456;-72
2022/06/15 08:50:40;;;;;;;;;;;21.70;48.50;;;;;;448819;265;1101;-72
2022/06/15 08:52:42;;;;;;;;;;;21.10;50.10;;;;;;448903;265;1114;-72
2022/06/15 08:54:43;;;;;;;;;;;20.80;51.30;;;;;;448991;265;2148;-72
2022/06/15 08:56:44;;;;;;;;;;;20.70;52.20;;;;;;449203;265;1116;-72
2022/06/15 08:58:46;;;;;;;;;;;20.50;52.80;;;;;;449174;265;1245;-72
2022/06/15 09:00:47;;;;;;;;;;;20.50;53.30;;;;;;449982;265;1268;-72
2022/06/15 09:02:49;;;;;;;;;;;20.50;53.50;;;;;;449541;265;1455;-72
2022/06/15 09:04:50;;;;;;;;;;;20.40;53.80;;;;;;449643;265;1047;-72
2022/06/15 09:06:51;;;;;;;;;;;20.40;53.80;;;;;;449916;260;1588;-72
2022/06/15 09:08:53;;;;;;;;;;;20.40;53.80;;;;;;450068;265;1082;-72
2022/06/15 09:10:54;;;;;;;;;;;20.40;53.80;;;;;;449561;265;1009;-72
2022/06/15 09:12:58;;;;;;;;;;;20.40;53.70;;;;;;449766;265;1110;-72
2022/06/15 09:14:57;;;;;;;;;;;20.30;53.90;;;;;;449826;264;2226;-72
2022/06/15 09:16:58;;;;;;;;;;;20.40;54.00;;;;;;449385;265;1115;-72
2022/06/15 09:19:01;;;;;;;;;;;20.50;53.90;;;;;;449933;265;1076;-72
2022/06/15 09:21:01;;;;;;;;;;;20.50;53.60;;;;;;449729;264;1321;-72
2022/06/15 09:23:03;;;;;;;;;;;20.50;53.40;;;;;;449425;265;1072;-72
2022/06/15 09:25:04;;;;;;;;;;;20.40;53.50;;;;;;449868;265;1088;-72
2022/06/15 09:27:05;;;;;;;;;;;20.40;53.60;;;;;;449359;261;1228;-72
2022/06/15 09:29:07;;;;;;;;;;;20.40;53.30;;;;;;449417;265;1109;-72
2022/06/15 09:31:08;;;;;;;;;;;20.40;53.20;;;;;;449668;265;1192;-72
2022/06/15 09:33:10;;;;;;;;;;;20.30;53.30;;;;;;449657;265;882;-72
2022/06/15 09:35:11;;;;;;;;;;;20.20;53.40;;;;;;449699;265;2197;-72
2022/06/15 09:37:12;;;;;;;;;;;20.10;53.50;;;;;;449314;265;1111;-72
2022/06/15 09:39:14;;;;;;;;;;;20.20;53.70;;;;;;449084;265;1241;-72
2022/06/15 09:41:15;;;;;;;;;;;20.20;53.60;;;;;;449468;265;1019;-72
2022/06/15 09:43:16;;;;;;;;;;;20.10;53.50;;;;;;449447;265;1340;-71
2022/06/15 09:45:18;;;;;;;;;;;20.10;53.50;;;;;;449275;265;1101;-71
2022/06/15 09:47:19;;;;;;;;;;;20.20;53.20;;;;;;449709;265;1020;-72
2022/06/15 09:49:21;;;;;;;;;;;20.20;53.30;;;;;;449409;265;1130;-71
2022/06/15 09:51:22;;;;;;;;;;;20.20;53.10;;;;;;449664;264;1318;-71
2022/06/15 09:53:23;;;;;;;;;;;20.10;53.10;;;;;;449906;265;1064;-71
2022/06/15 09:55:24;;;;;;;;;;;20.10;53.10;;;;;;449884;265;2214;-71
2022/06/15 09:57:26;;;;;;;;;;;20.10;52.90;;;;;;449809;265;982;-71
2022/06/15 09:59:32;;;;;;;;;;;20.20;53.00;;;;;;449641;265;1075;-71
2022/06/15 10:01:28;;;;;;;;;;;20.20;52.90;;;;;;449177;264;1284;-71
2022/06/15 10:03:30;;;;;;;;;;;20.30;52.70;;;;;;449534;265;834;-71
2022/06/15 10:05:31;;;;;;;;;;;20.30;52.50;;;;;;449487;265;1416;-71
2022/06/15 10:07:32;;;;;;;;;;;20.20;52.50;;;;;;449275;265;1156;-70
2022/06/15 10:09:34;;;;;;;;;;;20.20;52.50;;;;;;449547;265;838;-71
2022/06/15 10:11:35;;;;;;;;;;;20.10;52.70;;;;;;449523;265;1073;-71
2022/06/15 10:13:36;;;;;;;;;;;20.10;52.70;;;;;;449701;265;1083;-71
2022/06/15 10:15:38;;;;;;;;;;;20.20;52.50;;;;;;449771;265;2194;-71
2022/06/15 10:17:39;;;;;;;;;;;20.20;52.40;;;;;;449791;265;776;-71
2022/06/15 10:19:40;;;;;;;;;;;20.20;52.40;;;;;;449798;265;780;-71
2022/06/15 10:21:42;;;;;;;;;;;20.20;52.30;;;;;;449470;265;844;-71
2022/06/15 10:23:43;;;;;;;;;;;20.20;52.50;;;;;;448995;265;873;-71
2022/06/15 10:25:44;;;;;;;;;;;20.10;52.30;;;;;;449661;265;856;-71
2022/06/15 10:27:46;;;;;;;;;;;20.20;52.40;;;;;;449439;265;777;-71
2022/06/15 10:29:47;;;;;;;;;;;20.10;52.50;;;;;;449582;265;1114;-71
2022/06/15 10:31:48;;;;;;;;;;;20.00;52.60;;;;;;449461;265;789;-71
2022/06/15 10:33:50;;;;;;;;;;;20.10;52.60;;;;;;449436;264;809;-71
2022/06/15 10:35:51;;;;;;;;;;;20.00;52.50;;;;;;449868;265;2203;-71
2022/06/15 10:37:52;;;;;;;;;;;20.00;52.50;;;;;;449923;265;831;-71
2022/06/15 10:39:54;;;;;;;;;;;20.00;52.50;;;;;;449905;265;814;-72
2022/06/15 10:41:55;;;;;;;;;;;20.00;52.50;;;;;;449487;264;1403;-72
2022/06/15 10:43:56;;;;;;;;;;;20.00;52.50;;;;;;449855;265;1065;-71
2022/06/15 10:45:58;;;;;;;;;;;20.00;52.50;;;;;;449619;265;1277;-71
2022/06/15 10:47:59;;;;;;;;;;;20.00;52.40;;;;;;449411;265;1094;-71
2022/06/15 10:50:00;;;;;;;;;;;20.10;52.50;;;;;;449239;265;1118;-71
2022/06/15 10:52:02;;;;;;;;;;;20.00;52.40;;;;;;449563;265;1052;-71
2022/06/15 10:54:03;;;;;;;;;;;20.00;52.40;;;;;;449903;265;1354;-71
